createdAt,value
2022-08-16T00:00:26.273Z,39.72
2022-08-16T00:01:10.756Z,39.72
2022-08-16T00:02:16.659Z,39.61
2022-08-16T00:03:16.887Z,39.58
2022-08-16T00:04:13.408Z,39.58
2022-08-16T00:05:10.775Z,39.18
2022-08-16T00:06:10.842Z,39.27
2022-08-16T00:07:10.761Z,38.49
2022-08-16T00:08:11.162Z,38.15
2022-08-16T00:09:14.285Z,37.88
2022-08-16T00:10:21.032Z,37.79
2022-08-16T00:11:15.812Z,38.45
2022-08-16T00:12:10.656Z,37.88
2022-08-16T00:13:10.711Z,36.97
2022-08-16T00:14:12.594Z,36.74
2022-08-16T00:15:17.228Z,36.40
2022-08-16T00:17:20.091Z,36.06
2022-08-16T00:17:22.977Z,36.06
2022-08-16T00:18:13.167Z,36.06
2022-08-16T00:19:10.788Z,36.58
2022-08-16T00:20:15.565Z,36.36
2022-08-16T00:21:11.804Z,36.06
2022-08-16T00:23:13.758Z,38.17
2022-08-16T00:24:32.181Z,38.08
2022-08-16T00:25:14.128Z,38.08
2022-08-16T00:26:46.780Z,37.72
2022-08-16T00:27:12.113Z,37.72
2022-08-16T00:28:10.070Z,37.43
2022-08-16T00:29:10.369Z,37.47
2022-08-16T00:30:19.364Z,38.06
2022-08-16T00:31:12.516Z,37.83
2022-08-16T00:32:11.214Z,38.70
2022-08-16T00:33:11.767Z,40
2022-08-16T00:34:18.492Z,37.86
2022-08-16T00:35:19.130Z,39.17
2022-08-16T00:36:12.420Z,39.17
2022-08-16T00:37:10.589Z,38.90
2022-08-16T00:38:46.852Z,39.14
2022-08-16T00:39:18.978Z,38.99
2022-08-16T00:40:38.203Z,38.93
2022-08-16T00:41:11.962Z,38.93
2022-08-16T00:42:13.817Z,39.34
2022-08-16T00:43:20.325Z,38.77
2022-08-16T00:44:13.121Z,38.77
2022-08-16T00:45:12.895Z,39.89
2022-08-16T00:46:38.366Z,39.93
2022-08-16T00:47:11.807Z,39.93
2022-08-16T00:48:44.381Z,38.86
2022-08-16T00:49:22.441Z,38.52
2022-08-16T00:50:15.372Z,38.52
2022-08-16T00:51:12.395Z,38.68
2022-08-16T00:52:33.926Z,38.24
2022-08-16T00:53:11.064Z,38.24
2022-08-16T00:54:11.531Z,37.84
2022-08-16T00:55:11.919Z,37.70
2022-08-16T00:56:11.219Z,38.03
2022-08-16T00:57:15.027Z,37.94
2022-08-16T00:59:10.760Z,37.22
2022-08-16T01:00:12.545Z,37.69
2022-08-16T01:01:12.223Z,37.20
2022-08-16T01:02:35.145Z,37.40
2022-08-16T01:03:15.074Z,37.40
2022-08-16T01:04:33.574Z,37.15
2022-08-16T01:05:14.680Z,37.15
2022-08-16T01:07:02.334Z,36.75
2022-08-16T01:07:10.701Z,36.75
2022-08-16T01:08:40.143Z,36.41
2022-08-16T01:09:11.838Z,36.41
2022-08-16T01:11:10.326Z,36.27
2022-08-16T01:12:26.576Z,35.74
2022-08-16T01:13:12.226Z,35.95
2022-08-16T01:14:10.790Z,36.18
2022-08-16T01:15:11.798Z,36.34
2022-08-16T01:16:14.078Z,36.52
2022-08-16T01:17:12.098Z,36.20
2022-08-16T01:18:43.041Z,36.43
2022-08-16T01:19:15.337Z,36.43
2022-08-16T01:20:30.173Z,36.40
2022-08-16T01:21:11.449Z,36.40
2022-08-16T01:22:53.686Z,36.29
2022-08-16T01:23:12.629Z,36.29
2022-08-16T01:24:56.952Z,36.29
2022-08-16T01:25:10.840Z,36.29
2022-08-16T01:26:38.940Z,35.86
2022-08-16T01:27:10.338Z,35.86
2022-08-16T01:28:11.187Z,36.37
2022-08-16T01:29:13.460Z,36.11
2022-08-16T01:30:26.490Z,35.88
2022-08-16T01:31:10.767Z,35.88
2022-08-16T01:32:13.962Z,36.06
2022-08-16T01:33:19.330Z,36.35
2022-08-16T01:34:24.872Z,36.35
2022-08-16T01:35:16.834Z,36.40
2022-08-16T01:36:15.489Z,36.09
2022-08-16T01:37:12.508Z,36.54
2022-08-16T01:38:12.728Z,36.40
2022-08-16T01:39:15.313Z,36.47
2022-08-16T01:40:11.314Z,36.84
2022-08-16T01:41:10.760Z,36.68
2022-08-16T01:42:16.537Z,36.70
2022-08-16T01:43:13.215Z,36.47
2022-08-16T01:44:10.161Z,36.87
2022-08-16T01:45:10.691Z,36.95
2022-08-16T01:46:43.034Z,36.96
2022-08-16T01:47:11.861Z,36.96
2022-08-16T01:48:23.847Z,36.72
2022-08-16T01:49:10.661Z,36.72
2022-08-16T01:51:17.023Z,37.11
2022-08-16T01:51:20.659Z,37.13
2022-08-16T01:52:31.724Z,37.11
2022-08-16T01:53:13.911Z,37.11
2022-08-16T01:54:10.739Z,37.06
2022-08-16T01:55:10.690Z,37.06
2022-08-16T01:56:24.501Z,36.77
2022-08-16T01:57:14.750Z,36.68
2022-08-16T01:58:14.309Z,36.75
2022-08-16T01:59:19.403Z,36.15
2022-08-16T02:00:29.205Z,36.56
2022-08-16T02:01:11.628Z,36.56
2022-08-16T02:02:30.907Z,36.45
2022-08-16T02:03:15.813Z,36.45
2022-08-16T02:04:15.011Z,36.82
2022-08-16T02:05:10.813Z,36.90
2022-08-16T02:06:11.783Z,36.75
2022-08-16T02:07:11.348Z,36.94
2022-08-16T02:08:36.219Z,36.79
2022-08-16T02:09:15.309Z,36.79
2022-08-16T02:10:11.654Z,36.59
2022-08-16T02:11:10.676Z,36.90
2022-08-16T02:13:00.006Z,37.31
2022-08-16T02:13:11.326Z,37.31
2022-08-16T02:14:22.124Z,37.04
2022-08-16T02:15:10.418Z,37.04
2022-08-16T02:16:22.353Z,37.47
2022-08-16T02:17:10.716Z,37.47
2022-08-16T02:18:18.703Z,37.24
2022-08-16T02:19:19.925Z,37.22
2022-08-16T02:20:15.090Z,37.22
2022-08-16T02:21:10.782Z,37.36
2022-08-16T02:22:38.674Z,37.38
2022-08-16T02:23:11.008Z,37.38
2022-08-16T02:24:40.883Z,37.74
2022-08-16T02:25:14.676Z,37.74
2022-08-16T02:26:15.796Z,37.81
2022-08-16T02:27:10.801Z,37.09
2022-08-16T02:28:12.805Z,37.31
2022-08-16T02:29:16.690Z,37.77
2022-08-16T02:30:35.568Z,37.68
2022-08-16T02:31:12.390Z,37.18
2022-08-16T02:33:09.018Z,37.67
2022-08-16T02:33:15.309Z,37.67
2022-08-16T02:34:11.232Z,37.64
2022-08-16T02:35:12.853Z,37.34
2022-08-16T02:36:49.554Z,37.79
2022-08-16T02:37:11.549Z,37.81
2022-08-16T02:38:12.736Z,37.43
2022-08-16T02:39:10.859Z,37.68
2022-08-16T02:40:11.290Z,37.95
2022-08-16T02:41:15.250Z,38.03
2022-08-16T02:42:10.639Z,37.65
2022-08-16T02:43:11.356Z,37.95
2022-08-16T02:44:10.747Z,38.21
2022-08-16T02:45:13.928Z,38.38
2022-08-16T02:46:11.418Z,37.79
2022-08-16T02:47:10.597Z,37.99
2022-08-16T02:48:34.290Z,38.58
2022-08-16T02:49:11.120Z,38.58
2022-08-16T02:51:11.588Z,38.58
2022-08-16T02:51:14.960Z,38.58
2022-08-16T02:52:24.405Z,38.29
2022-08-16T02:53:10.372Z,38.59
2022-08-16T02:54:11.908Z,38.34
2022-08-16T02:55:10.713Z,38.66
2022-08-16T02:56:14.783Z,38.82
2022-08-16T02:57:11.629Z,38.31
2022-08-16T02:58:10.801Z,39.05
2022-08-16T02:59:18.515Z,30
2022-08-16T03:00:38.484Z,39.36
2022-08-16T03:01:15.078Z,39.36
2022-08-16T03:02:12.508Z,39.52
2022-08-16T03:03:15.170Z,39.52
2022-08-16T03:04:56.010Z,39.46
2022-08-16T03:05:10.482Z,39.46
2022-08-16T03:06:45.786Z,38.22
2022-08-16T03:07:12.649Z,38.22
2022-08-16T03:08:54.587Z,38.08
2022-08-16T03:09:17.013Z,38.08
2022-08-16T03:10:10.951Z,37.40
2022-08-16T03:11:24.811Z,37.78
2022-08-16T03:12:11.845Z,37.78
2022-08-16T03:13:16.215Z,37.85
2022-08-16T03:14:12.006Z,37.45
2022-08-16T03:15:11.647Z,37.38
2022-08-16T03:16:42.309Z,37.77
2022-08-16T03:17:11.600Z,37.77
2022-08-16T03:18:34.812Z,37.86
2022-08-16T03:19:11.039Z,37.86
2022-08-16T03:20:15.120Z,37.18
2022-08-16T03:21:13.562Z,37.81
2022-08-16T03:22:10.435Z,38.26
2022-08-16T03:23:10.411Z,38.33
2022-08-16T03:24:33.134Z,38.39
2022-08-16T03:25:11.276Z,38.39
2022-08-16T03:26:10.974Z,38.31
2022-08-16T03:27:13.115Z,38.52
2022-08-16T03:28:10.975Z,38.67
2022-08-16T03:29:10.830Z,38.67
2022-08-16T03:30:21.362Z,38.58
2022-08-16T03:31:10.717Z,38.58
2022-08-16T03:32:13.651Z,38.61
2022-08-16T03:33:11.485Z,38.48
2022-08-16T03:34:12.295Z,38.41
2022-08-16T03:35:11.340Z,38.47
2022-08-16T03:36:34.661Z,38.49
2022-08-16T03:37:10.114Z,38.49
2022-08-16T03:38:37.862Z,38.33
2022-08-16T03:39:20.404Z,38.34
2022-08-16T03:40:11.025Z,38.34
2022-08-16T03:41:29.597Z,37.83
2022-08-16T03:42:20.456Z,37.83
2022-08-16T03:43:51.985Z,38.42
2022-08-16T03:44:44.158Z,38.42
2022-08-16T03:45:12.318Z,37.58
2022-08-16T03:46:13.612Z,37.99
2022-08-16T03:47:18.516Z,38.49
2022-08-16T03:48:10.674Z,37.93
2022-08-16T03:49:10.958Z,37.79
2022-08-16T03:50:30.210Z,37.56
2022-08-16T03:51:12.480Z,37.56
2022-08-16T03:52:10.505Z,37.29
2022-08-16T03:53:10.593Z,37.83
2022-08-16T03:54:16.551Z,37.31
2022-08-16T03:55:18.880Z,37.54
2022-08-16T03:56:20.796Z,37.54
2022-08-16T03:57:19.784Z,37.67
2022-08-16T03:58:10.512Z,37.67
2022-08-16T03:59:10.319Z,37.11
2022-08-16T04:00:11.224Z,37.77
2022-08-16T04:01:10.844Z,37.80
2022-08-16T04:02:31.268Z,37.86
2022-08-16T04:03:12.391Z,37.86
2022-08-16T04:04:17.507Z,37.08
2022-08-16T04:05:11.737Z,37.15
2022-08-16T04:06:10.207Z,37.11
2022-08-16T04:07:10.567Z,36.66
2022-08-16T04:08:27.545Z,37.11
2022-08-16T04:09:15.798Z,37.11
2022-08-16T04:10:41.600Z,36.86
2022-08-16T04:11:10.545Z,36.86
2022-08-16T04:12:52.187Z,37.29
2022-08-16T04:14:01.188Z,37.69
2022-08-16T04:14:36.584Z,37.29
2022-08-16T04:15:11.319Z,37.29
2022-08-16T04:16:26.782Z,37.56
2022-08-16T04:17:10.661Z,37.69
2022-08-16T04:18:10.604Z,37.72
2022-08-16T04:19:10.824Z,37.36
2022-08-16T04:20:33.834Z,37.04
2022-08-16T04:21:10.525Z,37.04
2022-08-16T04:22:13.090Z,37.18
2022-08-16T04:23:29.708Z,36.63
2022-08-16T04:24:11.584Z,36.63
2022-08-16T04:25:11.139Z,35.43
2022-08-16T04:27:12.671Z,37.34
2022-08-16T04:29:16.679Z,37.72
2022-08-16T04:29:25.070Z,30
2022-08-16T04:30:14.472Z,30
2022-08-16T04:31:14.300Z,37.59
2022-08-16T04:32:14.118Z,37.47
2022-08-16T04:33:10.388Z,37.34
2022-08-16T04:34:12.531Z,37.68
2022-08-16T04:35:18.789Z,37.63
2022-08-16T04:36:10.340Z,37.93
2022-08-16T04:37:10.145Z,30
2022-08-16T04:38:21.389Z,37.65
2022-08-16T04:39:11.287Z,37.81
2022-08-16T04:40:11.273Z,38.30
2022-08-16T04:41:10.727Z,38.31
2022-08-16T04:42:14.793Z,37.40
2022-08-16T04:43:11.168Z,37.70
2022-08-16T04:44:56.524Z,38
2022-08-16T04:45:10.797Z,38
2022-08-16T04:47:21.767Z,38.35
2022-08-16T04:47:31.617Z,38.47
2022-08-16T04:48:10.654Z,38.47
2022-08-16T04:49:10.797Z,38.16
2022-08-16T04:50:11.282Z,37.79
2022-08-16T04:51:15.869Z,37.15
2022-08-16T04:52:38.871Z,36.68
2022-08-16T04:53:11.744Z,36.68
2022-08-16T04:54:11.209Z,36.68
2022-08-16T04:55:11.754Z,36.99
2022-08-16T04:56:16.557Z,36.77
2022-08-16T04:57:10.726Z,36.74
2022-08-16T04:58:49.715Z,37.04
2022-08-16T04:59:11.949Z,37.04
2022-08-16T05:00:36.613Z,37.30
2022-08-16T05:01:12.056Z,37.30
2022-08-16T05:02:46.214Z,36.95
2022-08-16T05:03:12.094Z,36.95
2022-08-16T05:04:23.489Z,36.84
2022-08-16T05:05:20.633Z,37.09
2022-08-16T05:06:13.000Z,37.09
2022-08-16T05:07:20.457Z,37.30
2022-08-16T05:08:34.476Z,37.06
2022-08-16T05:09:10.824Z,37.06
2022-08-16T05:10:26.128Z,37.42
2022-08-16T05:11:12.199Z,37.42
2022-08-16T05:12:21.955Z,37.22
2022-08-16T05:13:18.893Z,37.46
2022-08-16T05:14:20.313Z,37.46
2022-08-16T05:15:12.433Z,37.15
2022-08-16T05:16:20.375Z,37.62
2022-08-16T05:17:11.014Z,37.47
2022-08-16T05:19:16.658Z,37.59
2022-08-16T05:21:09.444Z,37.29
2022-08-16T05:21:16.054Z,37.29
2022-08-16T05:22:21.421Z,36.49
2022-08-16T05:23:14.991Z,36.49
2022-08-16T05:24:12.633Z,36.77
2022-08-16T05:25:12.959Z,36.82
2022-08-16T05:26:23.827Z,36.97
2022-08-16T05:27:15.286Z,36.97
2022-08-16T05:28:14.289Z,37.08
2022-08-16T05:29:15.291Z,36.63
2022-08-16T05:30:39.359Z,36.61
2022-08-16T05:31:10.460Z,36.61
2022-08-16T05:32:49.508Z,36.92
2022-08-16T05:33:19.624Z,36.79
2022-08-16T05:34:23.514Z,36.88
2022-08-16T05:35:14.616Z,36.88
2022-08-16T05:37:12.765Z,37.09
2022-08-16T05:38:42.547Z,37.02
2022-08-16T05:39:13.067Z,37.02
2022-08-16T05:40:10.623Z,37.04
2022-08-16T05:41:10.498Z,36.86
2022-08-16T05:42:11.730Z,37.44
2022-08-16T05:43:15.278Z,37.40
2022-08-16T05:44:28.048Z,37.27
2022-08-16T05:45:12.182Z,37.27
2022-08-16T05:46:34.389Z,37.72
2022-08-16T05:47:15.284Z,37.72
2022-08-16T05:48:11.688Z,37.59
2022-08-16T05:49:13.325Z,37.54
2022-08-16T05:50:22.568Z,38.02
2022-08-16T05:51:11.199Z,38.02
2022-08-16T05:52:17.326Z,38.11
2022-08-16T05:53:13.586Z,38.23
2022-08-16T05:54:11.254Z,38.02
2022-08-16T05:55:12.736Z,37.88
2022-08-16T05:56:13.107Z,37.63
2022-08-16T05:57:16.987Z,37.84
2022-08-16T05:58:31.575Z,37.84
2022-08-16T05:59:11.113Z,37.75
2022-08-16T06:00:13.530Z,38.08
2022-08-16T06:01:11.582Z,38.22
2022-08-16T06:02:10.879Z,37.72
2022-08-16T06:03:16.430Z,38.22
2022-08-16T06:04:36.532Z,38.61
2022-08-16T06:05:14.658Z,38.5
2022-08-16T06:06:12.186Z,36.90
2022-08-16T06:07:27.625Z,38.06
2022-08-16T06:08:11.196Z,38.06
2022-08-16T06:09:12.546Z,38.31
2022-08-16T06:10:13.462Z,37.88
2022-08-16T06:11:16.940Z,30
2022-08-16T06:12:12.316Z,38.24
2022-08-16T06:13:10.429Z,38.40
2022-08-16T06:14:11.078Z,37.88
2022-08-16T06:15:14.900Z,38.25
2022-08-16T06:16:17.819Z,38.61
2022-08-16T06:17:10.916Z,38.74
2022-08-16T06:18:11.046Z,38.88
2022-08-16T06:19:12.923Z,38.83
2022-08-16T06:20:11.006Z,38.71
2022-08-16T06:21:13.322Z,38.45
2022-08-16T06:22:37.395Z,37.91
2022-08-16T06:23:21.615Z,37.41
2022-08-16T06:24:59.076Z,37.56
2022-08-16T06:25:10.506Z,37.56
2022-08-16T06:26:11.541Z,37.22
2022-08-16T06:27:11.154Z,37.97
2022-08-16T06:28:17.318Z,38.18
2022-08-16T06:29:11.101Z,38.06
2022-08-16T06:30:10.615Z,37.79
2022-08-16T06:31:15.366Z,37.91
2022-08-16T06:32:10.435Z,37.59
2022-08-16T06:33:19.923Z,37.97
2022-08-16T06:35:02.692Z,38.24
2022-08-16T06:35:10.571Z,38.24
2022-08-16T06:36:14.204Z,37.75
2022-08-16T06:37:10.934Z,37.93
2022-08-16T06:38:36.427Z,38.24
2022-08-16T06:39:13.150Z,38.24
2022-08-16T06:40:16.820Z,37.93
2022-08-16T06:41:17.794Z,37.72
2022-08-16T06:42:11.568Z,37.74
2022-08-16T06:43:11.836Z,38.20
2022-08-16T06:44:26.968Z,37.45
2022-08-16T06:45:10.559Z,37.45
2022-08-16T06:46:13.606Z,37.21
2022-08-16T06:47:12.060Z,37.34
2022-08-16T06:48:12.236Z,36.93
2022-08-16T06:49:14.253Z,37.11
2022-08-16T06:50:10.502Z,37.18
2022-08-16T06:51:10.911Z,37.66
2022-08-16T06:53:08.678Z,38.20
2022-08-16T06:53:14.974Z,38.20
2022-08-16T06:54:17.770Z,38.48
2022-08-16T06:55:16.645Z,38.52
2022-08-16T06:56:23.717Z,39.29
2022-08-16T06:57:20.314Z,38.90
2022-08-16T06:58:31.875Z,39.43
2022-08-16T06:59:12.863Z,39.43
2022-08-16T07:00:28.218Z,39.56
2022-08-16T07:01:24.612Z,39.56
2022-08-16T07:02:36.972Z,39.13
2022-08-16T07:03:32.409Z,39.79
2022-08-16T07:04:32.058Z,39.79
2022-08-16T07:05:19.320Z,40.15
2022-08-16T07:06:14.839Z,40.15
2022-08-16T07:07:14.596Z,39.81
2022-08-16T07:08:11.389Z,40.36
2022-08-16T07:09:13.475Z,40.84
2022-08-16T07:10:12.407Z,40.97
2022-08-16T07:11:12.764Z,40.54
2022-08-16T07:12:10.688Z,40.74
2022-08-16T07:13:58.591Z,40.38
2022-08-16T07:14:29.934Z,40.11
2022-08-16T07:15:20.550Z,40.57
2022-08-16T07:16:10.733Z,40.57
2022-08-16T07:17:14.569Z,40.20
2022-08-16T07:18:10.933Z,40.50
2022-08-16T07:19:12.301Z,41.08
2022-08-16T07:20:47.248Z,41.45
2022-08-16T07:21:10.860Z,41.45
2022-08-16T07:22:42.101Z,40.65
2022-08-16T07:23:17.203Z,40.65
2022-08-16T07:24:12.319Z,40.40
2022-08-16T07:25:11.919Z,40.49
2022-08-16T07:26:10.185Z,40.29
2022-08-16T07:27:12.676Z,39.88
2022-08-16T07:28:20.449Z,39.61
2022-08-16T07:29:11.325Z,39.52
2022-08-16T07:30:50.266Z,40.79
2022-08-16T07:31:17.800Z,40.79
2022-08-16T07:32:11.465Z,40.50
2022-08-16T07:33:10.801Z,40.63
2022-08-16T07:34:13.968Z,40.36
2022-08-16T07:35:11.703Z,39.83
2022-08-16T07:36:10.679Z,39.61
2022-08-16T07:37:11.000Z,38.66
2022-08-16T07:38:10.460Z,38.89
2022-08-16T07:39:11.909Z,38.20
2022-08-16T07:40:14.906Z,37.93
2022-08-16T07:41:14.130Z,38.49
2022-08-16T07:42:20.130Z,38.76
2022-08-16T07:43:10.943Z,38.47
2022-08-16T07:45:14.059Z,38.27
2022-08-16T07:46:43.564Z,37.83
2022-08-16T07:47:11.011Z,37.83
2022-08-16T07:48:15.334Z,37.72
2022-08-16T07:49:14.911Z,37.82
2022-08-16T07:50:57.382Z,37.93
2022-08-16T07:51:12.963Z,37.72
2022-08-16T07:53:11.870Z,38.02
2022-08-16T07:54:20.961Z,38.17
2022-08-16T07:55:10.966Z,37.68
2022-08-16T07:56:11.133Z,38.02
2022-08-16T07:57:14.690Z,38.34
2022-08-16T07:59:10.637Z,38.31
2022-08-16T08:00:22.028Z,38.82
2022-08-16T08:01:16.567Z,38.82
2022-08-16T08:02:20.111Z,39.11
2022-08-16T08:03:15.037Z,39.37
2022-08-16T08:04:16.229Z,39.22
2022-08-16T08:05:11.039Z,39.57
2022-08-16T08:06:14.379Z,39.72
2022-08-16T08:07:12.756Z,39.84
2022-08-16T08:08:51.565Z,39.18
2022-08-16T08:09:10.784Z,39.56
2022-08-16T08:10:18.789Z,39.45
2022-08-16T08:11:13.080Z,38.59
2022-08-16T08:12:36.072Z,38.65
2022-08-16T08:13:11.008Z,38.65
2022-08-16T08:14:11.302Z,30
2022-08-16T08:15:13.650Z,38.29
2022-08-16T08:16:30.560Z,39.65
2022-08-16T08:17:12.172Z,39.65
2022-08-16T08:18:34.026Z,40.04
2022-08-16T08:19:13.537Z,40.04
2022-08-16T08:20:11.628Z,39.50
2022-08-16T08:21:11.503Z,39.11
2022-08-16T08:22:19.183Z,39.33
2022-08-16T08:23:11.201Z,39.43
2022-08-16T08:24:13.045Z,39.56
2022-08-16T08:25:13.067Z,39.54
2022-08-16T08:27:10.923Z,39.59
2022-08-16T08:28:14.637Z,39.08
2022-08-16T08:29:12.194Z,39.88
2022-08-16T08:31:02.445Z,39.81
2022-08-16T08:31:11.705Z,39.81
2022-08-16T08:33:05.847Z,39.65
2022-08-16T08:33:13.233Z,39.65
2022-08-16T08:34:12.817Z,39.99
2022-08-16T08:35:12.337Z,39.43
2022-08-16T08:36:10.174Z,39.56
2022-08-16T08:37:10.334Z,39.68
2022-08-16T08:38:10.634Z,39.56
2022-08-16T08:39:16.929Z,39.79
2022-08-16T08:40:11.655Z,40.09
2022-08-16T08:41:10.926Z,40.29
2022-08-16T08:42:12.139Z,40.58
2022-08-16T08:43:18.380Z,40.11
2022-08-16T08:44:34.155Z,40.12
2022-08-16T08:45:24.299Z,40.12
2022-08-16T08:47:15.068Z,40.18
2022-08-16T08:48:10.767Z,40.25
2022-08-16T08:49:12.459Z,40.58
2022-08-16T08:50:12.837Z,40.72
2022-08-16T08:51:13.444Z,40.90
2022-08-16T08:52:12.896Z,39.95
2022-08-16T08:53:10.597Z,40.39
2022-08-16T08:54:13.202Z,39.95
2022-08-16T08:55:14.714Z,38.65
2022-08-16T08:56:28.866Z,38.00
2022-08-16T08:57:11.951Z,38.00
2022-08-16T08:58:13.994Z,39.22
2022-08-16T08:59:23.434Z,40.58
2022-08-16T09:00:17.699Z,40.58
2022-08-16T09:01:13.154Z,39.90
2022-08-16T09:02:11.390Z,37.93
2022-08-16T09:03:13.808Z,39.88
2022-08-16T09:04:10.594Z,40.84
2022-08-16T09:05:19.458Z,42.18
2022-08-16T09:06:10.462Z,42.18
2022-08-16T09:07:10.757Z,41.36
2022-08-16T09:08:17.377Z,38.79
2022-08-16T09:09:16.950Z,37.13
2022-08-16T09:10:24.637Z,37.06
2022-08-16T09:11:10.884Z,37.06
2022-08-16T09:12:36.008Z,37.04
2022-08-16T09:13:14.057Z,37.04
2022-08-16T09:14:24.795Z,37.04
2022-08-16T09:15:13.445Z,36.90
2022-08-16T09:16:13.955Z,37.41
2022-08-16T09:17:38.294Z,37.11
2022-08-16T09:18:35.323Z,37.72
2022-08-16T09:19:10.577Z,37.72
2022-08-16T09:20:11.162Z,38.27
2022-08-16T09:21:10.316Z,38.11
2022-08-16T09:22:23.652Z,38.06
2022-08-16T09:23:10.726Z,38.06
2022-08-16T09:24:35.166Z,38.61
2022-08-16T09:25:15.921Z,39.45
2022-08-16T09:26:52.567Z,39.36
2022-08-16T09:27:12.887Z,39.36
2022-08-16T09:28:13.498Z,39.36
2022-08-16T09:29:23.785Z,38.38
2022-08-16T09:30:44.407Z,38.68
2022-08-16T09:31:14.353Z,38.68
2022-08-16T09:32:11.947Z,38.02
2022-08-16T09:33:11.651Z,37.97
2022-08-16T09:34:11.675Z,37.11
2022-08-16T09:35:10.809Z,36.93
2022-08-16T09:36:31.592Z,36.45
2022-08-16T09:37:21.427Z,35.99
2022-08-16T09:38:31.386Z,35.99
2022-08-16T09:39:20.055Z,35.68
2022-08-16T09:40:43.115Z,35.86
2022-08-16T09:41:18.578Z,35.86
2022-08-16T09:42:14.140Z,35.83
2022-08-16T09:43:21.058Z,36.27
2022-08-16T09:45:22.173Z,37.55
2022-08-16T09:45:22.280Z,37.55
2022-08-16T09:46:57.509Z,37.77
2022-08-16T09:47:14.082Z,37.77
2022-08-16T09:48:10.378Z,38.16
2022-08-16T09:49:12.243Z,38.70
2022-08-16T09:50:15.240Z,38.88
2022-08-16T09:51:10.531Z,40.90
2022-08-16T09:52:13.386Z,35.90
2022-08-16T09:53:18.953Z,37.04
2022-08-16T09:54:17.132Z,37.43
2022-08-16T09:55:11.101Z,36.61
2022-08-16T09:56:14.718Z,37.13
2022-08-16T09:57:15.504Z,39.66
2022-08-16T09:58:40.498Z,37.81
2022-08-16T09:59:12.005Z,38.29
2022-08-16T10:00:48.266Z,34.54
2022-08-16T10:01:12.376Z,34.54
2022-08-16T10:02:31.461Z,35.22
2022-08-16T10:03:13.941Z,35.22
2022-08-16T10:04:52.922Z,37.36
2022-08-16T10:05:11.453Z,37.36
2022-08-16T10:06:14.844Z,38.29
2022-08-16T10:07:19.834Z,38.18
2022-08-16T10:08:30.373Z,38.13
2022-08-16T10:09:14.066Z,38.13
2022-08-16T10:10:18.863Z,37.09
2022-08-16T10:11:13.116Z,36.34
2022-08-16T10:12:22.744Z,37.38
2022-08-16T10:13:10.729Z,37.38
2022-08-16T10:14:11.166Z,30
2022-08-16T10:15:15.201Z,38.16
2022-08-16T10:17:14.769Z,39.06
2022-08-16T10:19:07.976Z,38.11
2022-08-16T10:19:12.786Z,38.11
2022-08-16T10:20:17.815Z,37.52
2022-08-16T10:21:12.687Z,37.15
2022-08-16T10:22:13.327Z,37.72
2022-08-16T10:23:17.181Z,37.81
2022-08-16T10:24:10.692Z,37.68
2022-08-16T10:25:12.482Z,37.97
2022-08-16T10:27:45.824Z,38.81
2022-08-16T10:27:46.241Z,38.81
2022-08-16T10:28:41.683Z,39.38
2022-08-16T10:29:11.114Z,39.38
2022-08-16T10:30:36.680Z,38.31
2022-08-16T10:31:11.737Z,38.31
2022-08-16T10:32:11.431Z,38.31
2022-08-16T10:33:10.673Z,38.56
2022-08-16T10:34:36.722Z,39.05
2022-08-16T10:35:10.809Z,39.05
2022-08-16T10:36:12.194Z,38.86
2022-08-16T10:37:11.745Z,39.20
2022-08-16T10:38:30.526Z,38.18
2022-08-16T10:39:12.214Z,38.18
2022-08-16T10:40:33.305Z,37.43
2022-08-16T10:41:10.853Z,37.43
2022-08-16T10:42:13.575Z,37.97
2022-08-16T10:43:22.154Z,37.69
2022-08-16T10:44:13.306Z,37.69
2022-08-16T10:45:13.854Z,36.58
2022-08-16T10:46:45.515Z,35.58
2022-08-16T10:47:11.748Z,35.58
2022-08-16T10:48:32.053Z,35.29
2022-08-16T10:49:11.148Z,35.29
2022-08-16T10:50:23.422Z,35.36
2022-08-16T10:51:10.866Z,35.36
2022-08-16T10:52:24.319Z,34.84
2022-08-16T10:53:11.267Z,34.84
2022-08-16T10:54:33.380Z,34.77
2022-08-16T10:55:47.446Z,34.59
2022-08-16T10:56:59.903Z,35.24
2022-08-16T10:57:15.469Z,35.24
2022-08-16T10:58:16.866Z,34.86
2022-08-16T10:59:58.515Z,35.43
2022-08-16T11:00:25.742Z,35.45
2022-08-16T11:03:06.492Z,35.84
2022-08-16T11:03:48.477Z,35.79
2022-08-16T11:05:10.600Z,35.47
2022-08-16T11:05:14.442Z,35.47
2022-08-16T11:06:15.840Z,35.56
2022-08-16T11:07:43.089Z,35.56
2022-08-16T11:08:13.818Z,35.33
2022-08-16T11:09:32.064Z,35.45
2022-08-16T11:11:15.573Z,35.38
2022-08-16T11:11:22.514Z,36.04
2022-08-16T11:12:18.159Z,36.04
2022-08-16T11:13:59.990Z,36.29
2022-08-16T11:14:15.139Z,36.29
2022-08-16T11:15:21.266Z,37.04
2022-08-16T11:17:15.027Z,37.43
2022-08-16T11:19:12.368Z,38.45
2022-08-16T11:19:17.050Z,38.45
2022-08-16T11:20:42.755Z,39.54
2022-08-16T11:21:10.770Z,39.54
2022-08-16T11:22:52.240Z,30
2022-08-16T11:23:10.361Z,30
2022-08-16T11:24:45.540Z,39.63
2022-08-16T11:26:23.586Z,39.06
2022-08-16T11:26:26.784Z,38.63
2022-08-16T11:27:39.201Z,38.90
2022-08-16T11:28:11.057Z,38.90
2022-08-16T11:29:18.679Z,39.06
2022-08-16T11:30:13.047Z,39.68
2022-08-16T11:31:11.157Z,39.49
2022-08-16T11:32:13.851Z,39.45
2022-08-16T11:33:10.622Z,39.00
2022-08-16T11:34:11.438Z,39.56
2022-08-16T11:35:19.045Z,39.59
2022-08-16T11:36:31.808Z,39.54
2022-08-16T11:37:27.501Z,39.40
2022-08-16T11:38:59.207Z,38.58
2022-08-16T11:39:13.934Z,38.58
2022-08-16T11:40:13.549Z,38.22
2022-08-16T11:41:10.895Z,38.49
2022-08-16T11:42:37.066Z,38.74
2022-08-16T11:43:16.933Z,38.74
2022-08-16T11:44:10.608Z,38.52
2022-08-16T11:45:10.728Z,38.79
2022-08-16T11:46:48.670Z,38.56
2022-08-16T11:47:11.048Z,38.56
2022-08-16T11:48:10.543Z,39
2022-08-16T11:49:16.886Z,38.99
2022-08-16T11:50:11.486Z,38.83
2022-08-16T11:51:10.492Z,38.93
2022-08-16T11:52:11.237Z,39.43
2022-08-16T11:53:11.962Z,39.04
2022-08-16T11:54:33.141Z,38.77
2022-08-16T11:55:11.607Z,38.77
2022-08-16T11:56:14.867Z,39.18
2022-08-16T11:57:12.620Z,38.56
2022-08-16T11:58:10.888Z,38.22
2022-08-16T11:59:10.559Z,38.11
2022-08-16T12:00:50.583Z,38.77
2022-08-16T12:01:14.267Z,38.77
2022-08-16T12:02:36.164Z,38.86
2022-08-16T12:03:12.001Z,38.86
2022-08-16T12:04:10.774Z,39.11
2022-08-16T12:05:11.598Z,39.29
2022-08-16T12:06:25.448Z,39.04
2022-08-16T12:07:12.375Z,39.81
2022-08-16T12:08:10.401Z,39.54
2022-08-16T12:09:13.602Z,39.59
2022-08-16T12:10:11.353Z,39.97
2022-08-16T12:11:11.328Z,40.04
2022-08-16T12:12:10.303Z,39.99
2022-08-16T12:13:13.802Z,39.79
2022-08-16T12:14:11.045Z,38.50
2022-08-16T12:15:10.646Z,38.09
2022-08-16T12:16:13.136Z,37.49
2022-08-16T12:17:11.754Z,37.25
2022-08-16T12:18:12.240Z,37.45
2022-08-16T12:19:17.289Z,37.77
2022-08-16T12:20:18.646Z,37.66
2022-08-16T12:21:13.440Z,38.05
2022-08-16T12:22:23.461Z,37.31
2022-08-16T12:23:10.898Z,37.31
2022-08-16T12:24:11.125Z,37.22
2022-08-16T12:25:10.320Z,36.79
2022-08-16T12:26:13.952Z,36.00
2022-08-16T12:27:11.898Z,35.49
2022-08-16T12:28:12.479Z,36.77
2022-08-16T12:29:11.165Z,36.83
2022-08-16T12:30:26.969Z,36.43
2022-08-16T12:31:11.113Z,36.43
2022-08-16T12:32:57.594Z,37.04
2022-08-16T12:33:11.829Z,37.04
2022-08-16T12:34:11.082Z,39.20
2022-08-16T12:35:11.036Z,43.90
2022-08-16T12:36:16.583Z,30.79
2022-08-16T12:37:15.186Z,32.29
2022-08-16T12:38:48.248Z,30.44
2022-08-16T12:39:11.095Z,30.44
2022-08-16T12:40:29.375Z,31.79
2022-08-16T12:41:11.759Z,31.79
2022-08-16T12:42:10.877Z,34.04
2022-08-16T12:43:12.549Z,33.68
2022-08-16T12:44:10.920Z,33.96
2022-08-16T12:45:11.720Z,34.20
2022-08-16T12:46:12.240Z,32.95
2022-08-16T12:47:10.805Z,34.16
2022-08-16T12:48:36.544Z,34.33
2022-08-16T12:49:10.476Z,34.33
2022-08-16T12:50:15.172Z,34.16
2022-08-16T12:51:24.170Z,34.84
2022-08-16T12:52:10.992Z,34.84
2022-08-16T12:53:10.341Z,34.40
2022-08-16T12:54:10.576Z,34.40
2022-08-16T12:55:14.367Z,34.58
2022-08-16T12:56:13.390Z,34.45
2022-08-16T12:57:17.505Z,34.54
2022-08-16T12:58:53.514Z,33.99
2022-08-16T12:59:11.474Z,33.99
2022-08-16T13:00:12.103Z,34.20
2022-08-16T13:01:13.069Z,34.58
2022-08-16T13:02:22.943Z,33.66
2022-08-16T13:03:13.118Z,34.70
2022-08-16T13:04:24.804Z,34.93
2022-08-16T13:05:11.568Z,34.93
2022-08-16T13:06:12.432Z,34.97
2022-08-16T13:07:12.584Z,35.33